createdAt,value
2023-05-16T00:03:13.073Z,58.70
2023-05-16T00:13:48.840Z,61.50
2023-05-16T00:24:23.462Z,63.00
2023-05-16T00:34:58.184Z,66.20
2023-05-16T00:45:33.109Z,67.40
2023-05-16T00:56:33.872Z,68.10
2023-05-16T01:07:08.529Z,67.70
2023-05-16T01:18:01.008Z,70.10
2023-05-16T01:28:38.186Z,70.50
2023-05-16T01:39:40.743Z,73.90
2023-05-16T01:50:17.928Z,73.80
2023-05-16T02:01:00.354Z,75.70
2023-05-16T02:11:35.518Z,77.00
2023-05-16T02:22:10.304Z,77.10
2023-05-16T02:32:49.269Z,77.10
2023-05-16T02:43:25.180Z,78.30
2023-05-16T02:54:01.260Z,78.30
2023-05-16T03:04:35.785Z,79.60
2023-05-16T03:15:10.856Z,81.90
2023-05-16T03:25:46.490Z,77.30
2023-05-16T03:36:23.158Z,78.10
2023-05-16T03:46:57.868Z,74.80
2023-05-16T03:57:33.658Z,74.60
2023-05-16T04:08:08.476Z,74.20
2023-05-16T04:18:42.738Z,75.70
2023-05-16T04:29:17.848Z,79.30
2023-05-16T04:39:55.114Z,80.70
2023-05-16T04:50:30.002Z,80.00
2023-05-16T05:01:04.650Z,79.80
2023-05-16T05:11:39.157Z,80.40
2023-05-16T05:22:14.487Z,77.20
2023-05-16T05:32:49.199Z,73.60
2023-05-16T05:43:23.918Z,74.00
2023-05-16T05:53:59.120Z,70.10
2023-05-16T06:04:34.232Z,62.80
2023-05-16T06:15:10.273Z,62.80
2023-05-16T06:25:44.876Z,66.50
2023-05-16T06:36:19.665Z,65.30
2023-05-16T06:46:57.750Z,64.60
2023-05-16T06:57:32.187Z,65.90
2023-05-16T07:08:08.881Z,64.10
2023-05-16T07:18:44.107Z,65.90
2023-05-16T07:29:19.189Z,67.40
2023-05-16T07:39:54.436Z,70.70
2023-05-16T07:50:29.249Z,72.30
2023-05-16T08:01:04.432Z,77.30
2023-05-16T08:11:40.317Z,79.80
2023-05-16T08:22:15.011Z,77.20
2023-05-16T08:32:49.564Z,82.40
2023-05-16T08:43:24.789Z,82.30
2023-05-16T08:54:13.661Z,77.50
2023-05-16T09:04:49.718Z,75.00
2023-05-16T09:15:32.941Z,73.50
2023-05-16T09:26:08.320Z,64.00
2023-05-16T09:36:44.072Z,67.60
2023-05-16T09:47:20.744Z,61.60
2023-05-16T09:57:56.652Z,51.00
2023-05-16T10:08:36.469Z,43.70
2023-05-16T10:19:12.414Z,41.20
2023-05-16T10:40:29.369Z,38.40
2023-05-16T10:51:24.537Z,35.10
2023-05-16T11:01:59.002Z,36.40
2023-05-16T11:12:44.456Z,35.00
2023-05-16T11:23:23.648Z,34.60
2023-05-16T11:33:58.618Z,36.20
2023-05-16T11:44:33.467Z,36.50
2023-05-16T11:55:11.546Z,32.10
2023-05-16T12:05:53.737Z,30.60
2023-05-16T12:16:28.815Z,28.50
2023-05-16T12:27:03.898Z,23.60
2023-05-16T12:37:38.775Z,22.80
2023-05-16T12:48:14.573Z,17.40
2023-05-16T12:58:52.843Z,15.40
2023-05-16T13:09:32.039Z,11.80
2023-05-16T13:20:13.841Z,1.00
2023-05-16T13:30:48.723Z,1.00
2023-05-16T13:41:23.632Z,1.00
2023-05-16T13:51:58.869Z,1.00
2023-05-16T14:02:33.578Z,1.00
2023-05-16T14:13:08.599Z,1.00
2023-05-16T14:23:43.684Z,1.00
2023-05-16T14:34:18.442Z,1.00
2023-05-16T14:44:53.374Z,1.00
2023-05-16T14:55:28.383Z,1.00
2023-05-16T15:06:05.554Z,1.00
2023-05-16T15:16:40.080Z,1.00
2023-05-16T15:27:14.753Z,1.00
2023-05-16T15:37:49.334Z,1.00
2023-05-16T15:48:24.255Z,1.00
2023-05-16T15:58:59.135Z,1.00
2023-05-16T16:09:35.388Z,1.00
2023-05-16T16:20:10.721Z,1.00
2023-05-16T16:30:47.589Z,1.00
2023-05-16T16:41:22.754Z,1.00
2023-05-16T16:51:58.112Z,1.00
2023-05-16T17:02:33.005Z,1.00
2023-05-16T17:13:10.633Z,1.00
2023-05-16T17:23:45.400Z,1.00
2023-05-16T17:34:20.237Z,1.00
2023-05-16T17:44:54.998Z,1.00
2023-05-16T17:55:30.085Z,1.00
2023-05-16T18:06:05.556Z,1.00
2023-05-16T18:16:42.902Z,1.00
2023-05-16T18:27:17.999Z,1.00
2023-05-16T18:37:53.096Z,1.00
2023-05-16T18:48:27.633Z,1.00
2023-05-16T18:59:02.569Z,1.00
2023-05-16T19:09:37.412Z,1.00
2023-05-16T19:20:13.433Z,1.00
2023-05-16T19:30:48.149Z,1.00
2023-05-16T19:41:26.677Z,1.00
2023-05-16T19:52:03.059Z,1.00
2023-05-16T20:02:38.288Z,1.00
2023-05-16T20:13:15.324Z,1.00
2023-05-16T20:23:50.087Z,1.00
2023-05-16T20:34:24.800Z,1.00
2023-05-16T20:44:59.682Z,1.00
2023-05-16T20:55:34.682Z,1.00
2023-05-16T21:06:09.423Z,1.00
2023-05-16T21:16:44.009Z,1.00
2023-05-16T21:27:18.743Z,1.00
2023-05-16T21:37:53.632Z,1.00
2023-05-16T21:48:28.624Z,1.00
2023-05-16T21:59:03.275Z,8.20
2023-05-16T22:09:38.345Z,15.00
2023-05-16T22:20:12.977Z,15.30
2023-05-16T22:30:47.809Z,32.00
2023-05-16T22:41:22.556Z,28.80
2023-05-16T22:51:57.132Z,31.30
2023-05-16T23:02:32.001Z,30.40
2023-05-16T23:13:06.678Z,32.30
2023-05-16T23:23:41.489Z,32.90
2023-05-16T23:34:16.546Z,34.40
2023-05-16T23:44:51.627Z,34.10
2023-05-16T23:55:26.596Z,34.80
